sensor_id;sensor_type;location;lat;lon;timestamp;pressure;altitude;pressure_sealevel;temperature;humidity
21817;BME280;13247;47.504;7.382;2023-01-28T00:01:26;97766.25;;;0.34;100.00
21817;BME280;13247;47.504;7.382;2023-01-28T00:04:11;97773.91;;;0.29;100.00
21817;BME280;13247;47.504;7.382;2023-01-28T00:06:55;97769.84;;;0.45;100.00
21817;BME280;13247;47.504;7.382;2023-01-28T00:09:40;97767.88;;;0.27;100.00
21817;BME280;13247;47.504;7.382;2023-01-28T00:12:24;97760.31;;;0.41;100.00
21817;BME280;13247;47.504;7.382;2023-01-28T00:15:10;97769.75;;;0.39;100.00
21817;BME280;13247;47.504;7.382;2023-01-28T00:17:55;97771.38;;;0.32;100.00
21817;BME280;13247;47.504;7.382;2023-01-28T00:20:39;97764.56;;;0.36;100.00
21817;BME280;13247;47.504;7.382;2023-01-28T00:23:24;97759.69;;;0.55;100.00
21817;BME280;13247;47.504;7.382;2023-01-28T00:26:11;97761.13;;;0.35;100.00
21817;BME280;13247;47.504;7.382;2023-01-28T00:28:57;97762.00;;;0.36;100.00
21817;BME280;13247;47.504;7.382;2023-01-28T00:31:41;97765.63;;;0.48;100.00
21817;BME280;13247;47.504;7.382;2023-01-28T00:34:26;97759.81;;;0.66;100.00
21817;BME280;13247;47.504;7.382;2023-01-28T00:37:10;97761.31;;;0.49;100.00
21817;BME280;13247;47.504;7.382;2023-01-28T00:39:55;97754.50;;;0.52;100.00
21817;BME280;13247;47.504;7.382;2023-01-28T00:42:40;97750.25;;;0.57;100.00
21817;BME280;13247;47.504;7.382;2023-01-28T00:45:24;97756.13;;;0.49;100.00
21817;BME280;13247;47.504;7.382;2023-01-28T00:48:09;97761.66;;;0.73;100.00
21817;BME280;13247;47.504;7.382;2023-01-28T00:50:54;97756.28;;;0.59;100.00
21817;BME280;13247;47.504;7.382;2023-01-28T00:53:39;97751.94;;;0.55;100.00
21817;BME280;13247;47.504;7.382;2023-01-28T00:56:24;97764.00;;;0.56;100.00
21817;BME280;13247;47.504;7.382;2023-01-28T00:59:09;97753.13;;;0.78;100.00
21817;BME280;13247;47.504;7.382;2023-01-28T01:01:53;97753.31;;;0.91;100.00
21817;BME280;13247;47.504;7.382;2023-01-28T01:04:39;97756.78;;;0.94;100.00
21817;BME280;13247;47.504;7.382;2023-01-28T01:07:25;97757.72;;;1.01;100.00
21817;BME280;13247;47.504;7.382;2023-01-28T01:10:18;97755.41;;;1.20;100.00
21817;BME280;13247;47.504;7.382;2023-01-28T01:13:05;97758.56;;;0.98;100.00
21817;BME280;13247;47.504;7.382;2023-01-28T01:15:50;97756.78;;;0.94;100.00
21817;BME280;13247;47.504;7.382;2023-01-28T01:18:44;97767.50;;;0.61;100.00
21817;BME280;13247;47.504;7.382;2023-01-28T01:21:29;97773.38;;;0.50;100.00
21817;BME280;13247;47.504;7.382;2023-01-28T01:24:14;97757.44;;;0.79;100.00
21817;BME280;13247;47.504;7.382;2023-01-28T01:26:59;97761.94;;;0.94;100.00
21817;BME280;13247;47.504;7.382;2023-01-28T01:29:44;97760.94;;;0.83;100.00
21817;BME280;13247;47.504;7.382;2023-01-28T01:32:30;97756.56;;;0.79;100.00
21817;BME280;13247;47.504;7.382;2023-01-28T01:35:14;97766.75;;;0.67;100.00
21817;BME280;13247;47.504;7.382;2023-01-28T01:37:59;97769.41;;;0.74;100.00
21817;BME280;13247;47.504;7.382;2023-01-28T01:40:44;97766.22;;;0.91;100.00
21817;BME280;13247;47.504;7.382;2023-01-28T01:43:47;97755.47;;;1.29;100.00
21817;BME280;13247;47.504;7.382;2023-01-28T01:46:44;97750.63;;;0.85;100.00
21817;BME280;13247;47.504;7.382;2023-01-28T01:49:31;97759.38;;;0.96;100.00
21817;BME280;13247;47.504;7.382;2023-01-28T01:52:19;97760.47;;;0.51;100.00
21817;BME280;13247;47.504;7.382;2023-01-28T01:55:08;97771.09;;;0.72;100.00
21817;BME280;13247;47.504;7.382;2023-01-28T01:57:55;97751.38;;;0.76;100.00
21817;BME280;13247;47.504;7.382;2023-01-28T02:00:42;97764.28;;;0.76;100.00
21817;BME280;13247;47.504;7.382;2023-01-28T02:04:24;97756.28;;;0.59;100.00
21817;BME280;13247;47.504;7.382;2023-01-28T02:06:49;97754.75;;;0.70;100.00
21817;BME280;13247;47.504;7.382;2023-01-28T02:09:34;97760.84;;;0.75;100.00
21817;BME280;13247;47.504;7.382;2023-01-28T02:12:43;97753.25;;;0.86;100.00
21817;BME280;13247;47.504;7.382;2023-01-28T02:15:26;97751.59;;;0.93;100.00
21817;BME280;13247;47.504;7.382;2023-01-28T02:18:13;97745.75;;;1.07;100.00
21817;BME280;13247;47.504;7.382;2023-01-28T02:32:56;97751.69;;;1.00;100.00
21817;BME280;13247;47.504;7.382;2023-01-28T02:35:48;97761.72;;;0.76;100.00
21817;BME280;13247;47.504;7.382;2023-01-28T02:38:44;97751.66;;;0.97;100.00
21817;BME280;13247;47.504;7.382;2023-01-28T02:41:43;97758.75;;;1.13;100.00
21817;BME280;13247;47.504;7.382;2023-01-28T02:44:30;97752.56;;;1.01;100.00
21817;BME280;13247;47.504;7.382;2023-01-28T02:47:15;97756.78;;;0.93;100.00
21817;BME280;13247;47.504;7.382;2023-01-28T02:50:19;97752.56;;;1.01;100.00
21817;BME280;13247;47.504;7.382;2023-01-28T02:56:15;97755.84;;;0.88;100.00
21817;BME280;13247;47.504;7.382;2023-01-28T03:02:23;97760.38;;;1.05;100.00
21817;BME280;13247;47.504;7.382;2023-01-28T03:05:26;97762.91;;;1.04;100.00
21817;BME280;13247;47.504;7.382;2023-01-28T03:08:13;97769.47;;;0.77;100.00
21817;BME280;13247;47.504;7.382;2023-01-28T03:11:17;97759.50;;;1.05;100.00
21817;BME280;13247;47.504;7.382;2023-01-28T03:14:20;97763.72;;;0.98;100.00
21817;BME280;13247;47.504;7.382;2023-01-28T03:17:47;97764.53;;;0.94;100.00
21817;BME280;13247;47.504;7.382;2023-01-28T03:24:13;97770.06;;;0.58;100.00
21817;BME280;13247;47.504;7.382;2023-01-28T03:27:28;97759.81;;;0.64;100.00
21817;BME280;13247;47.504;7.382;2023-01-28T03:30:48;97753.78;;;0.64;100.00
21817;BME280;13247;47.504;7.382;2023-01-28T03:33:54;97760.53;;;0.54;100.00
21817;BME280;13247;47.504;7.382;2023-01-28T03:36:59;97755.75;;;0.83;100.00
21817;BME280;13247;47.504;7.382;2023-01-28T03:39:44;97758.31;;;0.80;100.00
21817;BME280;13247;47.504;7.382;2023-01-28T03:42:30;97772.03;;;0.76;100.00
21817;BME280;13247;47.504;7.382;2023-01-28T03:45:16;97779.84;;;0.82;100.00
21817;BME280;13247;47.504;7.382;2023-01-28T03:48:01;97783.88;;;0.63;100.00
21817;BME280;13247;47.504;7.382;2023-01-28T03:50:46;97782.50;;;0.87;100.00
21817;BME280;13247;47.504;7.382;2023-01-28T03:53:31;97772.81;;;0.70;100.00
21817;BME280;13247;47.504;7.382;2023-01-28T03:56:16;97782.44;;;0.82;100.00
21817;BME280;13247;47.504;7.382;2023-01-28T03:59:02;97781.19;;;0.54;100.00
21817;BME280;13247;47.504;7.382;2023-01-28T04:01:47;97782.22;;;0.67;100.00
21817;BME280;13247;47.504;7.382;2023-01-28T04:04:34;97778.63;;;0.57;100.00
21817;BME280;13247;47.504;7.382;2023-01-28T04:07:18;97775.25;;;0.61;100.00
21817;BME280;13247;47.504;7.382;2023-01-28T04:10:03;97784.00;;;0.69;100.00
21817;BME280;13247;47.504;7.382;2023-01-28T04:12:48;97775.31;;;0.66;100.00
21817;BME280;13247;47.504;7.382;2023-01-28T04:15:37;97780.44;;;0.63;100.00
21817;BME280;13247;47.504;7.382;2023-01-28T04:18:22;97785.56;;;0.60;100.00
21817;BME280;13247;47.504;7.382;2023-01-28T04:21:11;97779.50;;;0.56;100.00
21817;BME280;13247;47.504;7.382;2023-01-28T04:23:55;97782.97;;;0.61;100.00
21817;BME280;13247;47.504;7.382;2023-01-28T04:26:40;97787.00;;;0.43;100.00
21817;BME280;13247;47.504;7.382;2023-01-28T04:29:25;97787.22;;;0.56;100.00
21817;BME280;13247;47.504;7.382;2023-01-28T04:32:09;97789.84;;;0.59;100.00
21817;BME280;13247;47.504;7.382;2023-01-28T04:34:54;97792.53;;;0.67;100.00
21817;BME280;13247;47.504;7.382;2023-01-28T04:37:41;97794.00;;;0.51;100.00
21817;BME280;13247;47.504;7.382;2023-01-28T04:40:25;97793.06;;;0.45;100.00
21817;BME280;13247;47.504;7.382;2023-01-28T04:43:10;97799.34;;;0.63;100.00
21817;BME280;13247;47.504;7.382;2023-01-28T04:45:54;97800.22;;;0.64;100.00
21817;BME280;13247;47.504;7.382;2023-01-28T04:48:39;97802.78;;;0.62;100.00
21817;BME280;13247;47.504;7.382;2023-01-28T04:51:24;97803.59;;;0.60;100.00
21817;BME280;13247;47.504;7.382;2023-01-28T04:54:08;97807.88;;;0.58;100.00
21817;BME280;13247;47.504;7.382;2023-01-28T04:56:53;97805.53;;;0.73;100.00
21817;BME280;13247;47.504;7.382;2023-01-28T04:59:39;97800.22;;;0.62;100.00
21817;BME280;13247;47.504;7.382;2023-01-28T05:02:24;97808.78;;;0.61;100.00
21817;BME280;13247;47.504;7.382;2023-01-28T05:05:08;97813.19;;;0.65;100.00
21817;BME280;13247;47.504;7.382;2023-01-28T05:07:54;97810.69;;;0.71;100.00
21817;BME280;13247;47.504;7.382;2023-01-28T05:10:39;97816.66;;;0.69;100.00
21817;BME280;13247;47.504;7.382;2023-01-28T05:13:24;97811.34;;;0.58;100.00
21817;BME280;13247;47.504;7.382;2023-01-28T05:16:08;97813.22;;;0.70;100.00
21817;BME280;13247;47.504;7.382;2023-01-28T05:18:53;97823.44;;;0.64;100.00
21817;BME280;13247;47.504;7.382;2023-01-28T05:21:37;97815.22;;;0.89;100.00
21817;BME280;13247;47.504;7.382;2023-01-28T05:24:22;97822.63;;;0.66;100.00
21817;BME280;13247;47.504;7.382;2023-01-28T05:27:07;97823.59;;;0.73;100.00
21817;BME280;13247;47.504;7.382;2023-01-28T05:29:51;97824.53;;;0.78;100.00
21817;BME280;13247;47.504;7.382;2023-01-28T05:32:36;97822.81;;;0.78;100.00
21817;BME280;13247;47.504;7.382;2023-01-28T05:35:20;97818.34;;;0.67;100.00
21817;BME280;13247;47.504;7.382;2023-01-28T05:38:05;97822.78;;;0.75;100.00
21817;BME280;13247;47.504;7.382;2023-01-28T05:40:50;97826.97;;;0.69;100.00
21817;BME280;13247;47.504;7.382;2023-01-28T05:43:35;97826.09;;;0.68;100.00
21817;BME280;13247;47.504;7.382;2023-01-28T05:46:19;97829.56;;;0.70;100.00
21817;BME280;13247;47.504;7.382;2023-01-28T05:49:04;97832.88;;;0.60;100.00
21817;BME280;13247;47.504;7.382;2023-01-28T05:51:52;97839.88;;;0.67;100.00
21817;BME280;13247;47.504;7.382;2023-01-28T05:54:37;97830.47;;;0.74;100.00
21817;BME280;13247;47.504;7.382;2023-01-28T05:57:21;97831.34;;;0.74;100.00
21817;BME280;13247;47.504;7.382;2023-01-28T06:00:06;97833.13;;;0.78;100.00
21817;BME280;13247;47.504;7.382;2023-01-28T06:02:52;97840.72;;;0.68;100.00
21817;BME280;13247;47.504;7.382;2023-01-28T06:05:37;97838.19;;;0.72;100.00
21817;BME280;13247;47.504;7.382;2023-01-28T06:08:21;97841.59;;;0.68;100.00
21817;BME280;13247;47.504;7.382;2023-01-28T06:11:06;97842.69;;;0.86;100.00
21817;BME280;13247;47.504;7.382;2023-01-28T06:13:51;97844.38;;;0.82;100.00
21817;BME280;13247;47.504;7.382;2023-01-28T06:16:35;97851.09;;;0.71;100.00
21817;BME280;13247;47.504;7.382;2023-01-28T06:19:20;97846.72;;;0.65;100.00
21817;BME280;13247;47.504;7.382;2023-01-28T06:22:05;97847.78;;;0.81;100.00
21817;BME280;13247;47.504;7.382;2023-01-28T06:24:49;97855.44;;;0.73;100.00
21817;BME280;13247;47.504;7.382;2023-01-28T06:27:33;97851.00;;;0.65;100.00
21817;BME280;13247;47.504;7.382;2023-01-28T06:30:18;97850.38;;;0.79;100.00
21817;BME280;13247;47.504;7.382;2023-01-28T06:33:03;97859.72;;;0.73;100.00
21817;BME280;13247;47.504;7.382;2023-01-28T06:35:48;97862.41;;;0.80;100.00
21817;BME280;13247;47.504;7.382;2023-01-28T06:38:32;97865.78;;;0.76;100.00
21817;BME280;13247;47.504;7.382;2023-01-28T06:41:18;97857.16;;;0.74;100.00
21817;BME280;13247;47.504;7.382;2023-01-28T06:44:03;97856.19;;;0.66;100.00
21817;BME280;13247;47.504;7.382;2023-01-28T06:46:48;97863.91;;;0.66;100.00
21817;BME280;13247;47.504;7.382;2023-01-28T06:49:32;97873.44;;;0.70;100.00
21817;BME280;13247;47.504;7.382;2023-01-28T06:52:17;97872.84;;;0.87;100.00
21817;BME280;13247;47.504;7.382;2023-01-28T06:55:01;97877.84;;;0.77;100.00
21817;BME280;13247;47.504;7.382;2023-01-28T06:57:46;97876.16;;;0.78;100.00
21817;BME280;13247;47.504;7.382;2023-01-28T07:00:31;97876.91;;;0.72;100.00
21817;BME280;13247;47.504;7.382;2023-01-28T07:03:16;97881.19;;;0.70;100.00
21817;BME280;13247;47.504;7.382;2023-01-28T07:06:00;97880.34;;;0.71;100.00
21817;BME280;13247;47.504;7.382;2023-01-28T07:08:45;97882.94;;;0.71;100.00
21817;BME280;13247;47.504;7.382;2023-01-28T07:11:30;97890.75;;;0.76;100.00
21817;BME280;13247;47.504;7.382;2023-01-28T07:14:14;97885.69;;;0.84;100.00
21817;BME280;13247;47.504;7.382;2023-01-28T07:16:59;97888.25;;;0.82;100.00
21817;BME280;13247;47.504;7.382;2023-01-28T07:19:43;97888.19;;;0.79;100.00
21817;BME280;13247;47.504;7.382;2023-01-28T07:22:28;97888.03;;;0.68;100.00
21817;BME280;13247;47.504;7.382;2023-01-28T07:25:13;97885.53;;;0.73;100.00
21817;BME280;13247;47.504;7.382;2023-01-28T07:27:58;97895.78;;;0.68;100.00
21817;BME280;13247;47.504;7.382;2023-01-28T07:30:43;97889.94;;;0.80;100.00
21817;BME280;13247;47.504;7.382;2023-01-28T07:33:27;97888.94;;;0.72;100.00
21817;BME280;13247;47.504;7.382;2023-01-28T07:36:12;97900.03;;;0.66;100.00
21817;BME280;13247;47.504;7.382;2023-01-28T07:38:56;97905.28;;;0.72;100.00
21817;BME280;13247;47.504;7.382;2023-01-28T07:41:41;97905.97;;;0.61;100.00
21817;BME280;13247;47.504;7.382;2023-01-28T07:44:26;97901.00;;;0.71;100.00
21817;BME280;13247;47.504;7.382;2023-01-28T07:47:11;97906.06;;;0.67;100.00
21817;BME280;13247;47.504;7.382;2023-01-28T07:49:56;97904.38;;;0.69;100.00
21817;BME280;13247;47.504;7.382;2023-01-28T07:52:40;97904.31;;;0.64;100.00
21817;BME280;13247;47.504;7.382;2023-01-28T07:55:29;97907.69;;;0.62;100.00
21817;BME280;13247;47.504;7.382;2023-01-28T07:58:14;97915.63;;;0.72;100.00
21817;BME280;13247;47.504;7.382;2023-01-28T08:00:59;97901.91;;;0.76;100.00
21817;BME280;13247;47.504;7.382;2023-01-28T08:03:44;97901.88;;;0.73;100.00
21817;BME280;13247;47.504;7.382;2023-01-28T08:06:29;97912.16;;;0.72;100.00
21817;BME280;13247;47.504;7.382;2023-01-28T08:09:13;97919.13;;;0.76;100.00
21817;BME280;13247;47.504;7.382;2023-01-28T08:11:58;97920.69;;;0.68;100.00
21817;BME280;13247;47.504;7.382;2023-01-28T08:14:43;97918.53;;;0.94;100.00
21817;BME280;13247;47.504;7.382;2023-01-28T08:17:27;97923.44;;;0.77;100.00
21817;BME280;13247;47.504;7.382;2023-01-28T08:20:12;97928.63;;;0.78;100.00
21817;BME280;13247;47.504;7.382;2023-01-28T08:23:08;97932.06;;;0.79;100.00
21817;BME280;13247;47.504;7.382;2023-01-28T08:25:56;97934.81;;;0.90;100.00
21817;BME280;13247;47.504;7.382;2023-01-28T08:28:41;97933.03;;;0.86;100.00
21817;BME280;13247;47.504;7.382;2023-01-28T08:31:27;97942.28;;;0.71;100.00
21817;BME280;13247;47.504;7.382;2023-01-28T08:34:12;97951.91;;;0.82;100.00
21817;BME280;13247;47.504;7.382;2023-01-28T08:36:57;97941.63;;;0.85;100.00
21817;BME280;13247;47.504;7.382;2023-01-28T08:39:41;97948.69;;;0.95;100.00
21817;BME280;13247;47.504;7.382;2023-01-28T08:42:26;97950.13;;;0.77;100.00
21817;BME280;13247;47.504;7.382;2023-01-28T08:45:10;97956.44;;;0.95;100.00
21817;BME280;13247;47.504;7.382;2023-01-28T08:48:01;97965.66;;;0.80;100.00
21817;BME280;13247;47.504;7.382;2023-01-28T08:50:47;97963.19;;;0.87;100.00
21817;BME280;13247;47.504;7.382;2023-01-28T08:53:32;97967.00;;;1.10;100.00
21817;BME280;13247;47.504;7.382;2023-01-28T08:56:16;97966.84;;;1.01;100.00
21817;BME280;13247;47.504;7.382;2023-01-28T08:59:01;97966.88;;;1.02;100.00
21817;BME280;13247;47.504;7.382;2023-01-28T09:01:46;97967.59;;;0.94;100.00
21817;BME280;13247;47.504;7.382;2023-01-28T09:04:30;97966.06;;;1.06;100.00
21817;BME280;13247;47.504;7.382;2023-01-28T09:07:15;97970.16;;;0.94;100.00
21817;BME280;13247;47.504;7.382;2023-01-28T09:09:59;97972.75;;;0.94;100.00
21817;BME280;13247;47.504;7.382;2023-01-28T09:12:44;97976.13;;;0.88;100.00
21817;BME280;13247;47.504;7.382;2023-01-28T09:15:29;97984.94;;;1.04;100.00
21817;BME280;13247;47.504;7.382;2023-01-28T09:18:13;97971.47;;;1.20;100.00
21817;BME280;13247;47.504;7.382;2023-01-28T09:20:58;97971.16;;;1.02;100.00
21817;BME280;13247;47.504;7.382;2023-01-28T09:23:43;97973.88;;;1.09;100.00
21817;BME280;13247;47.504;7.382;2023-01-28T09:26:28;97981.47;;;1.02;100.00
21817;BME280;13247;47.504;7.382;2023-01-28T09:29:13;97986.03;;;1.16;100.00
21817;BME280;13247;47.504;7.382;2023-01-28T09:31:57;97986.66;;;1.02;100.00
21817;BME280;13247;47.504;7.382;2023-01-28T09:34:42;97983.59;;;1.27;100.00
21817;BME280;13247;47.504;7.382;2023-01-28T09:37:28;97996.47;;;1.22;100.00
21817;BME280;13247;47.504;7.382;2023-01-28T09:40:35;97996.56;;;1.30;100.00
21817;BME280;13247;47.504;7.382;2023-01-28T09:46:13;97998.19;;;1.22;100.00
21817;BME280;13247;47.504;7.382;2023-01-28T09:49:01;97995.19;;;1.51;100.00
21817;BME280;13247;47.504;7.382;2023-01-28T09:51:52;97981.38;;;1.51;100.00
21817;BME280;13247;47.504;7.382;2023-01-28T09:54:45;97987.94;;;1.29;100.00
21817;BME280;13247;47.504;7.382;2023-01-28T09:57:52;97993.19;;;1.34;100.00
21817;BME280;13247;47.504;7.382;2023-01-28T10:00:54;97995.84;;;1.37;100.00
21817;BME280;13247;47.504;7.382;2023-01-28T10:06:55;98000.34;;;1.51;100.00
21817;BME280;13247;47.504;7.382;2023-01-28T10:09:54;97995.13;;;1.47;100.00
21817;BME280;13247;47.504;7.382;2023-01-28T10:19:09;97989.81;;;1.39;100.00
21817;BME280;13247;47.504;7.382;2023-01-28T10:22:00;97991.47;;;1.34;100.00
21817;BME280;13247;47.504;7.382;2023-01-28T10:24:51;97989.72;;;1.33;100.00
21817;BME280;13247;47.504;7.382;2023-01-28T10:27:37;97988.09;;;1.38;100.00
21817;BME280;13247;47.504;7.382;2023-01-28T10:30:29;97989.88;;;1.42;100.00
21817;BME280;13247;47.504;7.382;2023-01-28T10:36:14;97993.41;;;1.47;100.00
21817;BME280;13247;47.504;7.382;2023-01-28T10:38:59;97989.94;;;1.47;100.00
21817;BME280;13247;47.504;7.382;2023-01-28T10:41:43;97990.03;;;1.51;100.00
21817;BME280;13247;47.504;7.382;2023-01-28T10:44:33;97993.31;;;1.41;100.00
21817;BME280;13247;47.504;7.382;2023-01-28T10:47:26;97983.75;;;1.36;100.00
21817;BME280;13247;47.504;7.382;2023-01-28T10:50:25;97974.53;;;1.54;100.00
21817;BME280;13247;47.504;7.382;2023-01-28T10:53:10;97974.69;;;1.64;100.00
21817;BME280;13247;47.504;7.382;2023-01-28T10:55:57;97977.13;;;1.54;100.00
21817;BME280;13247;47.504;7.382;2023-01-28T10:59:03;97983.31;;;1.66;100.00
21817;BME280;13247;47.504;7.382;2023-01-28T11:02:03;97965.44;;;1.81;100.00
21817;BME280;13247;47.504;7.382;2023-01-28T11:05:16;97962.91;;;1.87;100.00
21817;BME280;13247;47.504;7.382;2023-01-28T11:08:15;97964.63;;;1.86;100.00
21817;BME280;13247;47.504;7.382;2023-01-28T11:10:59;97956.72;;;1.74;100.00
21817;BME280;13247;47.504;7.382;2023-01-28T11:13:51;97960.19;;;1.75;100.00
21817;BME280;13247;47.504;7.382;2023-01-28T11:16:41;97960.25;;;1.79;100.00
21817;BME280;13247;47.504;7.382;2023-01-28T11:19:34;97964.69;;;1.91;100.00
21817;BME280;13247;47.504;7.382;2023-01-28T11:22:49;97970.53;;;1.76;100.00
21817;BME280;13247;47.504;7.382;2023-01-28T11:25:36;97966.44;;;1.92;100.00
21817;BME280;13247;47.504;7.382;2023-01-28T11:28:22;97966.38;;;1.87;100.00
21817;BME280;13247;47.504;7.382;2023-01-28T11:31:07;97964.66;;;1.88;100.00
21817;BME280;13247;47.504;7.382;2023-01-28T11:33:58;97971.34;;;1.71;100.00
21817;BME280;13247;47.504;7.382;2023-01-28T11:37:13;97967.19;;;1.85;100.00
21817;BME280;13247;47.504;7.382;2023-01-28T11:40:01;97960.50;;;2.00;100.00
21817;BME280;13247;47.504;7.382;2023-01-28T11:42:47;97958.63;;;1.87;100.00
21817;BME280;13247;47.504;7.382;2023-01-28T11:45:44;97967.16;;;1.82;100.00
21817;BME280;13247;47.504;7.382;2023-01-28T11:49:17;97955.16;;;1.88;100.00
21817;BME280;13247;47.504;7.382;2023-01-28T11:51:59;97960.41;;;1.91;100.00
21817;BME280;13247;47.504;7.382;2023-01-28T12:07:12;97956.13;;;1.95;100.00
21817;BME280;13247;47.504;7.382;2023-01-28T12:13:53;97951.19;;;2.16;100.00
21817;BME280;13247;47.504;7.382;2023-01-28T12:20:00;97970.81;;;1.97;100.00
21817;BME280;13247;47.504;7.382;2023-01-28T12:28:56;97956.28;;;2.07;100.00
21817;BME280;13247;47.504;7.382;2023-01-28T12:31:55;97952.00;;;2.10;100.00
21817;BME280;13247;47.504;7.382;2023-01-28T12:34:57;97948.59;;;2.16;100.00
21817;BME280;13247;47.504;7.382;2023-01-28T12:37:51;97946.84;;;2.10;100.00
21817;BME280;13247;47.504;7.382;2023-01-28T12:40:56;97956.47;;;2.23;100.00
21817;BME280;13247;47.504;7.382;2023-01-28T12:46:53;97948.88;;;2.40;100.00
21817;BME280;13247;47.504;7.382;2023-01-28T12:49:52;97957.47;;;2.37;100.00
21817;BME280;13247;47.504;7.382;2023-01-28T12:52:46;97961.88;;;2.48;100.00
21817;BME280;13247;47.504;7.382;2023-01-28T12:55:54;97952.25;;;2.31;100.00
21817;BME280;13247;47.504;7.382;2023-01-28T13:05:14;97955.97;;;2.61;100.00
21817;BME280;13247;47.504;7.382;2023-01-28T13:08:16;97960.13;;;2.45;100.00
21817;BME280;13247;47.504;7.382;2023-01-28T13:11:11;97968.66;;;2.35;100.00
21817;BME280;13247;47.504;7.382;2023-01-28T13:13:58;97967.16;;;2.58;100.00
21817;BME280;13247;47.504;7.382;2023-01-28T13:16:43;97969.69;;;2.49;100.00
21817;BME280;13247;47.504;7.382;2023-01-28T13:19:40;97969.59;;;2.43;100.00
21817;BME280;13247;47.504;7.382;2023-01-28T13:22:36;97966.19;;;2.46;100.00
21817;BME280;13247;47.504;7.382;2023-01-28T13:25:24;97962.00;;;2.58;100.00
21817;BME280;13247;47.504;7.382;2023-01-28T13:28:29;97963.03;;;2.77;100.00
21817;BME280;13247;47.504;7.382;2023-01-28T13:31:15;97968.94;;;2.62;100.00
21817;BME280;13247;47.504;7.382;2023-01-28T13:34:05;97968.09;;;2.66;100.00
21817;BME280;13247;47.504;7.382;2023-01-28T13:36:50;97966.44;;;2.70;100.00
21817;BME280;13247;47.504;7.382;2023-01-28T13:39:35;97975.09;;;2.75;100.00
21817;BME280;13247;47.504;7.382;2023-01-28T13:42:26;97978.50;;;2.68;100.00
21817;BME280;13247;47.504;7.382;2023-01-28T13:51:31;97979.34;;;2.68;100.00
21817;BME280;13247;47.504;7.382;2023-01-28T13:54:20;97974.94;;;2.58;100.00
21817;BME280;13247;47.504;7.382;2023-01-28T14:03:55;97974.09;;;2.61;100.00
21817;BME280;13247;47.504;7.382;2023-01-28T14:16:03;97975.41;;;3.08;100.00
21817;BME280;13247;47.504;7.382;2023-01-28T14:18:52;97987.25;;;2.80;100.00
21817;BME280;13247;47.504;7.382;2023-01-28T14:21:37;97985.50;;;2.78;100.00
21817;BME280;13247;47.504;7.382;2023-01-28T14:24:22;97986.53;;;2.96;100.00
21817;BME280;13247;47.504;7.382;2023-01-28T14:27:30;97983.16;;;3.03;100.00
21817;BME280;13247;47.504;7.382;2023-01-28T14:30:37;97979.72;;;3.09;100.00
21817;BME280;13247;47.504;7.382;2023-01-28T14:33:27;97984.06;;;3.10;100.00
21817;BME280;13247;47.504;7.382;2023-01-28T14:36:12;97989.16;;;3.01;100.00
21817;BME280;13247;47.504;7.382;2023-01-28T14:38:57;97990.97;;;3.09;100.00
21817;BME280;13247;47.504;7.382;2023-01-28T14:41:44;97996.09;;;3.03;100.00
21817;BME280;13247;47.504;7.382;2023-01-28T14:44:39;98000.44;;;3.07;100.00
21817;BME280;13247;47.504;7.382;2023-01-28T15:00:29;98013.16;;;2.83;100.00
21817;BME280;13247;47.504;7.382;2023-01-28T15:03:18;98015.88;;;2.97;100.00
21817;BME280;13247;47.504;7.382;2023-01-28T15:06:13;98017.41;;;2.77;100.00
21817;BME280;13247;47.504;7.382;2023-01-28T15:09:10;98010.66;;;2.92;100.00
21817;BME280;13247;47.504;7.382;2023-01-28T15:11:57;98013.31;;;2.98;100.00
21817;BME280;13247;47.504;7.382;2023-01-28T15:14:42;98017.75;;;3.11;100.00
21817;BME280;13247;47.504;7.382;2023-01-28T15:17:28;98022.09;;;3.15;100.00
21817;BME280;13247;47.504;7.382;2023-01-28T15:20:19;98027.22;;;3.09;100.00
21817;BME280;13247;47.504;7.382;2023-01-28T15:23:06;98033.97;;;2.92;100.00
21817;BME280;13247;47.504;7.382;2023-01-28T15:25:51;98030.44;;;2.86;100.00
21817;BME280;13247;47.504;7.382;2023-01-28T15:28:38;98040.97;;;3.01;100.00
21817;BME280;13247;47.504;7.382;2023-01-28T15:31:34;98043.41;;;2.86;100.00
21817;BME280;13247;47.504;7.382;2023-01-28T15:34:22;98043.28;;;2.72;100.00
21817;BME280;13247;47.504;7.382;2023-01-28T15:37:13;98044.34;;;2.91;100.00
21817;BME280;13247;47.504;7.382;2023-01-28T15:40:00;98049.53;;;2.94;100.00
21817;BME280;13247;47.504;7.382;2023-01-28T15:42:47;98053.75;;;2.84;100.00
21817;BME280;13247;47.504;7.382;2023-01-28T15:45:32;98065.94;;;2.94;100.00
21817;BME280;13247;47.504;7.382;2023-01-28T15:48:17;98066.91;;;3.04;100.00
21817;BME280;13247;47.504;7.382;2023-01-28T15:51:08;98070.25;;;2.94;100.00
21817;BME280;13247;47.504;7.382;2023-01-28T15:54:04;98081.53;;;2.97;100.00
21817;BME280;13247;47.504;7.382;2023-01-28T15:56:50;98089.41;;;3.08;100.00
21817;BME280;13247;47.504;7.382;2023-01-28T15:59:34;98081.25;;;2.73;100.00
21817;BME280;13247;47.504;7.382;2023-01-28T16:02:20;98085.53;;;2.71;100.00
21817;BME280;13247;47.504;7.382;2023-01-28T16:05:06;98083.94;;;2.82;100.00
21817;BME280;13247;47.504;7.382;2023-01-28T16:07:55;98092.53;;;2.80;100.00
21817;BME280;13247;47.504;7.382;2023-01-28T16:10:40;98092.59;;;2.86;100.00
21817;BME280;13247;47.504;7.382;2023-01-28T16:13:27;98096.16;;;2.94;100.00
21817;BME280;13247;47.504;7.382;2023-01-28T16:16:15;98099.44;;;2.79;100.00
21817;BME280;13247;47.504;7.382;2023-01-28T16:19:32;98102.84;;;2.77;100.00
21817;BME280;13247;47.504;7.382;2023-01-28T16:22:30;98109.66;;;2.66;100.00
21817;BME280;13247;47.504;7.382;2023-01-28T16:25:35;98113.31;;;2.83;100.00
21817;BME280;13247;47.504;7.382;2023-01-28T16:28:22;98117.41;;;2.66;100.00
21817;BME280;13247;47.504;7.382;2023-01-28T16:31:10;98124.25;;;2.59;100.00
21817;BME280;13247;47.504;7.382;2023-01-28T16:33:55;98135.44;;;2.58;100.00
21817;BME280;13247;47.504;7.382;2023-01-28T16:36:39;98129.44;;;2.61;100.00
21817;BME280;13247;47.504;7.382;2023-01-28T16:39:24;98132.91;;;2.61;100.00
21817;BME280;13247;47.504;7.382;2023-01-28T16:42:08;98141.50;;;2.60;100.00